Time;durP1;ratioP1;P1;durP2;ratioP2;P2;SDS_P1;SDS_P2;PMS_P1;PMS_P2;Temp;Humidity;BMP_temperature;BMP_pressure;BME280_temperature;BME280_humidity;BME280_pressure;Samples;Min_cycle;Max_cycle;Signal;HPM_P1;HPM_P2
2023/06/13 00:00:06;;;;;;;9.00;3.95;;;21.20;93.80;;;;;;5098566;28;20100;-69
2023/06/13 00:02:33;;;;;;;7.63;4.85;;;20.70;93.50;;;;;;5116079;28;20115;-69
2023/06/13 00:05:02;;;;;;;8.18;4.00;;;20.70;94.80;;;;;;5113386;28;20191;-69
2023/06/13 00:07:31;;;;;;;7.38;4.32;;;20.80;96.50;;;;;;5113490;28;20652;-70
2023/06/13 00:09:57;;;;;;;11.13;4.45;;;20.90;96.40;;;;;;5113704;28;20106;-69
2023/06/13 00:12:24;;;;;;;5.40;4.10;;;21.00;96.60;;;;;;5113461;28;20050;-70
2023/06/13 00:14:51;;;;;;;7.93;4.32;;;20.90;96.60;;;;;;5113438;28;20042;-69
2023/06/13 00:17:18;;;;;;;8.73;4.18;;;20.80;94.60;;;;;;5112900;28;20054;-69
2023/06/13 00:19:45;;;;;;;6.55;4.57;;;20.60;94.20;;;;;;5114664;28;20042;-70
2023/06/13 00:22:13;;;;;;;5.97;3.97;;;20.70;94.40;;;;;;5113497;28;20044;-69
2023/06/13 00:24:43;;;;;;;6.80;4.28;;;20.80;94.30;;;;;;5114613;28;20040;-69
2023/06/13 00:27:10;;;;;;;6.13;4.53;;;20.50;94.40;;;;;;5112710;28;20096;-69
2023/06/13 00:29:36;;;;;;;5.55;4.45;;;20.90;94.40;;;;;;5112487;28;20040;-70
2023/06/13 00:32:01;;;;;;;7.18;4.60;;;21.00;94.30;;;;;;5112995;28;20035;-70
2023/06/13 00:34:27;;;;;;;7.90;4.38;;;20.50;94.50;;;;;;5096708;28;20036;-69
2023/06/13 00:36:55;;;;;;;9.98;3.80;;;20.40;94.60;;;;;;5092003;28;20044;-70
2023/06/13 00:39:21;;;;;;;5.82;4.03;;;21.40;94.70;;;;;;5092337;28;20505;-70
2023/06/13 00:41:47;;;;;;;6.05;3.85;;;20.40;94.40;;;;;;5092793;28;20404;-70
2023/06/13 00:44:12;;;;;;;7.65;3.92;;;20.90;94.40;;;;;;5092676;28;20032;-69
2023/06/13 00:46:41;;;;;;;7.78;5.05;;;20.80;94.40;;;;;;5093158;28;20507;-69
2023/06/13 00:49:07;;;;;;;8.00;4.28;;;20.20;94.70;;;;;;5092062;28;20534;-69
2023/06/13 00:51:36;;;;;;;5.88;3.92;;;20.30;94.60;;;;;;5092602;28;20051;-70
2023/06/13 00:54:06;;;;;;;8.07;4.25;;;20.10;94.50;;;;;;5092270;28;20047;-69
2023/06/13 00:56:32;;;;;;;8.45;3.92;;;20.20;94.70;;;;;;5091767;28;20067;-70
2023/06/13 00:59:01;;;;;;;6.95;3.95;;;20.20;94.80;;;;;;5091852;28;20503;-70
2023/06/13 01:01:30;;;;;;;5.82;4.30;;;20.40;95.00;;;;;;5092116;28;20051;-69
2023/06/13 01:03:57;;;;;;;8.02;3.70;;;20.10;95.20;;;;;;5091983;28;20040;-70
2023/06/13 01:06:33;;;;;;;5.90;4.03;;;20.00;98.00;;;;;;5091670;28;20656;-70
2023/06/13 01:09:05;;;;;;;7.53;4.35;;;20.50;97.90;;;;;;5091728;28;20047;-70
2023/06/13 01:11:50;;;;;;;6.03;3.53;;;19.80;95.80;;;;;;5092685;28;20050;-70
2023/06/13 01:14:41;;;;;;;4.97;3.80;;;20.00;95.40;;;;;;5093318;28;20036;-69
2023/06/13 01:17:15;;;;;;;6.90;4.05;;;19.70;96.00;;;;;;5091352;28;20047;-70
2023/06/13 01:19:43;;;;;;;8.40;4.20;;;19.70;96.80;;;;;;5091441;28;20051;-69
2023/06/13 01:22:19;;;;;;;10.75;4.10;;;19.60;97.00;;;;;;5092990;28;20514;-69
2023/06/13 01:25:14;;;;;;;6.50;3.47;;;19.60;96.80;;;;;;5091944;28;20102;-69
2023/06/13 01:27:45;;;;;;;6.78;3.55;;;19.60;97.10;;;;;;5089623;28;20054;-67
2023/06/13 01:30:11;;;;;;;5.47;3.65;;;19.60;97.20;;;;;;5091517;28;20153;-70
2023/06/13 01:32:38;;;;;;;7.00;3.72;;;19.50;97.20;;;;;;5091532;28;20040;-68
2023/06/13 01:35:04;;;;;;;8.40;3.85;;;19.40;96.50;;;;;;5090784;28;20044;-70
2023/06/13 01:37:30;;;;;;;9.90;3.85;;;19.40;96.60;;;;;;5091414;28;20119;-70
2023/06/13 01:39:56;;;;;;;4.75;3.67;;;19.50;97.00;;;;;;5091874;28;20515;-69
2023/06/13 01:42:21;;;;;;;9.57;3.88;;;19.50;96.60;;;;;;5091290;28;20447;-69
2023/06/13 01:44:47;;;;;;;6.55;3.47;;;19.60;96.90;;;;;;5092420;28;20036;-70
2023/06/13 01:47:22;;;;;;;5.82;4.03;;;19.30;96.90;;;;;;5091104;28;20395;-69
2023/06/13 01:50:12;;;;;;;8.20;4.20;;;19.10;99.70;;;;;;5091014;28;20044;-69
2023/06/13 01:53:13;;;;;;;6.45;3.88;;;;;;;;;;5091347;28;20036;-68
2023/06/13 01:55:45;;;;;;;5.40;3.92;;;19.00;99.90;;;;;;5092102;28;20203;-69
2023/06/13 01:58:19;;;;;;;6.35;3.95;;;19.20;99.90;;;;;;5090899;28;20031;-68
2023/06/13 02:00:47;;;;;;;6.35;3.75;;;19.50;99.90;;;;;;5075125;28;20059;-69
2023/06/13 02:03:13;;;;;;;6.72;4.05;;;19.10;99.90;;;;;;5092228;28;20036;-69
2023/06/13 02:05:39;;;;;;;7.40;4.15;;;;;;;;;;5090642;28;20062;-70
2023/06/13 02:08:06;;;;;;;5.70;3.85;;;;;;;;;;5090634;28;20683;-69
2023/06/13 02:10:34;;;;;;;5.53;3.65;;;;;;;;;;5091112;28;20058;-70
2023/06/13 02:13:00;;;;;;;5.90;3.75;;;19.10;99.90;;;;;;5090783;28;20089;-69
2023/06/13 02:15:25;;;;;;;6.10;4.45;;;19.10;99.90;;;;;;5090443;28;20040;-70
2023/06/13 02:17:51;;;;;;;8.45;4.13;;;18.90;96.70;;;;;;5090742;28;20046;-70
2023/06/13 02:20:17;;;;;;;7.13;3.85;;;19.00;96.80;;;;;;5091855;28;20038;-70
2023/06/13 02:22:42;;;;;;;7.80;4.32;;;18.70;96.80;;;;;;5090863;28;20051;-69
2023/06/13 02:25:08;;;;;;;5.75;4.13;;;18.90;97.70;;;;;;5090242;28;20517;-69
2023/06/13 02:27:34;;;;;;;5.35;4.32;;;18.60;97.50;;;;;;5091943;28;20067;-70
2023/06/13 02:30:00;;;;;;;5.25;3.90;;;18.80;98.60;;;;;;5090388;28;20043;-69
2023/06/13 02:32:29;;;;;;;7.38;3.83;;;18.70;99.20;;;;;;5091909;28;20036;-69
2023/06/13 02:34:54;;;;;;;9.27;5.20;;;19.00;97.90;;;;;;5090202;28;20191;-69
2023/06/13 02:37:20;;;;;;;4.90;3.92;;;18.70;98.20;;;;;;5090446;28;20087;-70
2023/06/13 02:39:46;;;;;;;7.82;3.72;;;18.40;97.60;;;;;;5073648;28;20032;-69
2023/06/13 02:42:11;;;;;;;8.68;3.58;;;18.50;97.10;;;;;;5090581;28;20036;-69
2023/06/13 02:44:37;;;;;;;7.32;4.72;;;18.30;98.20;;;;;;5090410;28;20028;-70
2023/06/13 02:47:02;;;;;;;5.32;3.45;;;18.60;98.50;;;;;;5102600;28;20040;-69
2023/06/13 02:49:28;;;;;;;5.85;4.10;;;18.40;98.20;;;;;;5110407;28;20203;-69
2023/06/13 02:51:53;;;;;;;7.88;4.47;;;18.40;99.90;;;;;;5111955;28;20554;-69
2023/06/13 02:54:21;;;;;;;4.78;3.95;;;;;;;;;;5115162;28;20046;-70
2023/06/13 02:56:49;;;;;;;7.13;4.07;;;;;;;;;;5114960;28;20043;-69
2023/06/13 02:59:15;;;;;;;7.82;4.30;;;;;;;;;;5114582;28;20365;-69
2023/06/13 03:01:41;;;;;;;7.22;4.47;;;;;;;;;;5114838;28;20501;-69
2023/06/13 03:04:06;;;;;;;7.22;4.43;;;18.10;99.90;;;;;;5115984;28;20067;-69
2023/06/13 03:06:32;;;;;;;6.25;3.95;;;18.30;99.90;;;;;;5114459;28;20042;-70
2023/06/13 03:09:00;;;;;;;10.77;5.03;;;18.40;98.10;;;;;;5113466;28;20092;-71
2023/06/13 03:11:26;;;;;;;6.75;4.00;;;18.50;97.20;;;;;;5114470;28;20402;-70
2023/06/13 03:13:51;;;;;;;9.35;4.65;;;18.80;97.50;;;;;;5114147;28;20036;-70
2023/06/13 03:16:21;;;;;;;7.40;4.65;;;18.10;97.00;;;;;;5113728;28;20035;-68
2023/06/13 03:18:47;;;;;;;9.45;4.25;;;19.50;97.00;;;;;;5113312;28;20036;-68
2023/06/13 03:21:12;;;;;;;9.85;4.28;;;18.20;96.90;;;;;;5114118;28;20035;-68
2023/06/13 03:23:38;;;;;;;9.57;4.88;;;18.40;97.20;;;;;;5113387;28;20042;-68
2023/06/13 03:26:03;;;;;;;8.45;5.22;;;18.10;96.90;;;;;;5113394;28;20515;-68
2023/06/13 03:28:29;;;;;;;8.55;5.07;;;18.20;96.90;;;;;;5113486;28;20411;-68
2023/06/13 03:30:57;;;;;;;7.30;5.20;;;17.90;96.70;;;;;;5096771;28;20050;-68
2023/06/13 03:33:22;;;;;;;8.80;5.25;;;18.70;96.90;;;;;;5113966;28;20191;-68
2023/06/13 03:35:48;;;;;;;15.80;5.53;;;17.80;96.60;;;;;;5113042;28;20074;-68
2023/06/13 03:38:14;;;;;;;9.35;4.95;;;18.00;96.80;;;;;;5113308;28;20498;-68
2023/06/13 03:40:39;;;;;;;8.52;4.90;;;18.80;96.80;;;;;;5113566;28;20035;-68
2023/06/13 03:43:05;;;;;;;9.95;4.65;;;17.90;97.00;;;;;;5113557;28;20528;-68
2023/06/13 03:45:30;;;;;;;11.13;4.47;;;17.70;98.00;;;;;;5112908;28;20457;-68
2023/06/13 03:47:56;;;;;;;5.45;4.35;;;17.70;98.40;;;;;;5113161;28;20032;-68
2023/06/13 03:50:22;;;;;;;10.98;4.43;;;17.60;98.00;;;;;;5113681;28;20051;-68
2023/06/13 03:52:47;;;;;;;7.28;4.28;;;17.50;98.40;;;;;;5113590;28;20479;-67
2023/06/13 03:55:13;;;;;;;7.57;4.68;;;17.60;98.50;;;;;;5112774;28;20045;-69
2023/06/13 03:57:39;;;;;;;9.38;4.60;;;17.70;97.40;;;;;;5112903;28;20092;-68
2023/06/13 04:00:07;;;;;;;7.78;4.40;;;17.80;97.70;;;;;;5095975;28;20078;-68
2023/06/13 04:02:33;;;;;;;7.03;4.40;;;17.60;97.50;;;;;;5113123;28;20050;-69
2023/06/13 04:05:00;;;;;;;8.65;4.00;;;17.70;97.60;;;;;;5111997;28;20039;-68
2023/06/13 04:07:26;;;;;;;7.57;4.20;;;17.60;97.50;;;;;;5113017;28;20035;-69
2023/06/13 04:09:52;;;;;;;9.40;4.78;;;17.80;97.70;;;;;;5112804;28;20058;-69
2023/06/13 04:12:18;;;;;;;7.10;4.72;;;17.70;97.70;;;;;;5113004;28;20112;-69
2023/06/13 04:14:43;;;;;;;6.47;4.03;;;17.70;97.90;;;;;;5112833;28;20046;-70
2023/06/13 04:17:09;;;;;;;8.68;4.82;;;18.10;98.20;;;;;;5112380;28;20039;-70
2023/06/13 04:19:35;;;;;;;6.43;4.10;;;17.80;97.90;;;;;;5112376;28;20044;-69
2023/06/13 04:22:01;;;;;;;8.13;5.32;;;18.40;98.10;;;;;;5112820;28;20032;-70
2023/06/13 04:24:27;;;;;;;8.80;5.15;;;17.90;98.10;;;;;;5113104;28;20039;-69
2023/06/13 04:26:53;;;;;;;7.75;4.20;;;17.90;98.20;;;;;;5112305;28;20617;-70
2023/06/13 04:29:19;;;;;;;7.78;4.78;;;17.90;98.40;;;;;;5112235;28;20499;-69
2023/06/13 04:31:46;;;;;;;12.75;4.88;;;18.40;98.40;;;;;;5112541;28;20043;-69
2023/06/13 04:34:13;;;;;;;12.13;4.95;;;18.10;98.30;;;;;;5101846;28;20046;-69
2023/06/13 04:36:41;;;;;;;9.10;4.97;;;18.60;98.20;;;;;;5094005;28;20093;-69
2023/06/13 04:39:07;;;;;;;7.22;4.43;;;18.30;98.30;;;;;;5079512;28;20042;-69
2023/06/13 04:41:34;;;;;;;8.05;4.82;;;18.00;98.10;;;;;;5100273;28;20395;-69
2023/06/13 04:44:05;;;;;;;7.00;4.45;;;18.00;98.10;;;;;;5091093;28;20115;-70
2023/06/13 04:46:32;;;;;;;7.90;5.82;;;18.10;97.90;;;;;;5095503;28;20051;-68
2023/06/13 04:48:58;;;;;;;7.30;4.38;;;17.90;98.10;;;;;;5110868;28;20047;-67
2023/06/13 04:51:25;;;;;;;5.68;3.97;;;18.50;98.40;;;;;;5104278;28;20040;-69
2023/06/13 04:53:52;;;;;;;11.55;5.10;;;18.30;98.30;;;;;;5096523;28;20040;-69
2023/06/13 04:56:18;;;;;;;7.47;4.82;;;18.30;97.90;;;;;;5098071;28;20039;-69
2023/06/13 04:58:43;;;;;;;6.32;4.25;;;18.10;97.70;;;;;;5086866;28;20480;-67
2023/06/13 05:01:11;;;;;;;8.13;4.57;;;18.50;97.80;;;;;;5082103;28;20406;-70
2023/06/13 05:03:38;;;;;;;8.20;4.72;;;18.80;97.90;;;;;;5108532;28;20035;-68
2023/06/13 05:06:03;;;;;;;9.80;4.47;;;18.90;97.70;;;;;;5111970;28;20507;-70
2023/06/13 05:08:30;;;;;;;7.75;4.93;;;18.30;97.70;;;;;;5111251;28;20127;-70
2023/06/13 05:10:57;;;;;;;7.05;4.35;;;18.50;97.70;;;;;;5110996;28;20114;-69
2023/06/13 05:13:23;;;;;;;6.85;4.65;;;18.70;97.80;;;;;;5111478;28;20044;-69
2023/06/13 05:15:48;;;;;;;7.68;4.57;;;18.60;97.50;;;;;;5110009;28;20380;-70
2023/06/13 05:18:14;;;;;;;10.88;5.88;;;18.90;97.40;;;;;;5112733;28;20105;-71
2023/06/13 05:20:41;;;;;;;6.68;4.57;;;17.40;97.20;;;;;;5111049;28;20411;-71
2023/06/13 05:23:08;;;;;;;5.15;4.57;;;18.80;97.50;;;;;;5111083;28;20042;-71
2023/06/13 05:25:34;;;;;;;9.60;4.65;;;19.00;97.70;;;;;;5110986;28;20050;-70
2023/06/13 05:28:01;;;;;;;9.10;4.60;;;18.80;97.50;;;;;;5094058;28;20047;-70
2023/06/13 05:30:27;;;;;;;6.40;4.43;;;18.80;97.30;;;;;;5110896;28;20075;-70
2023/06/13 05:32:53;;;;;;;10.52;4.65;;;18.90;97.30;;;;;;5112821;28;20131;-70
2023/06/13 05:35:18;;;;;;;6.65;4.22;;;18.90;97.40;;;;;;5110693;28;20043;-70
2023/06/13 05:37:44;;;;;;;13.55;4.20;;;19.20;97.20;;;;;;5111127;28;20036;-70
2023/06/13 05:40:10;;;;;;;9.60;4.13;;;19.10;97.20;;;;;;5110957;28;20036;-71
2023/06/13 05:42:37;;;;;;;6.85;4.32;;;19.00;97.10;;;;;;5109942;28;20487;-69
2023/06/13 05:45:07;;;;;;;5.70;4.18;;;19.10;96.80;;;;;;5109956;28;20084;-70
2023/06/13 05:47:33;;;;;;;7.45;4.15;;;19.10;96.90;;;;;;5109976;28;20036;-71
2023/06/13 05:49:59;;;;;;;10.88;4.63;;;19.00;96.80;;;;;;5110538;28;20411;-70
2023/06/13 05:52:25;;;;;;;9.20;4.35;;;19.20;96.60;;;;;;5110966;28;20032;-71
2023/06/13 05:54:51;;;;;;;11.20;4.30;;;19.00;96.50;;;;;;5110716;28;20036;-71
2023/06/13 05:57:17;;;;;;;6.18;3.83;;;19.30;96.70;;;;;;5110099;28;20040;-70
2023/06/13 05:59:43;;;;;;;5.53;4.15;;;19.60;96.50;;;;;;5110824;28;20028;-71
2023/06/13 06:02:12;;;;;;;6.97;4.15;;;19.30;96.30;;;;;;5110764;28;20036;-71
2023/06/13 06:04:41;;;;;;;10.05;3.95;;;19.40;96.20;;;;;;5111475;28;20387;-70
2023/06/13 06:07:06;;;;;;;8.93;4.22;;;20.20;96.20;;;;;;5111024;28;20050;-71
2023/06/13 06:09:32;;;;;;;7.72;4.20;;;19.90;95.90;;;;;;5111231;28;20415;-71
2023/06/13 06:11:57;;;;;;;8.02;4.03;;;19.50;96.00;;;;;;5093939;28;20077;-70
2023/06/13 06:14:23;;;;;;;9.40;4.55;;;20.20;95.90;;;;;;5110893;28;20445;-70
2023/06/13 06:16:52;;;;;;;9.38;4.32;;;19.60;95.40;;;;;;5093275;28;20027;-69
2023/06/13 06:19:17;;;;;;;7.13;4.18;;;20.20;95.20;;;;;;5110434;28;20043;-70
2023/06/13 06:21:43;;;;;;;7.55;4.25;;;20.20;95.60;;;;;;5110694;28;20119;-70
2023/06/13 06:24:09;;;;;;;8.65;4.10;;;19.90;95.30;;;;;;5110716;28;20509;-71
2023/06/13 06:26:34;;;;;;;10.02;4.18;;;20.30;95.30;;;;;;5111434;28;20039;-71
2023/06/13 06:29:00;;;;;;;5.78;3.80;;;20.10;94.90;;;;;;5110490;28;20092;-71
2023/06/13 06:31:27;;;;;;;8.60;3.85;;;20.70;94.90;;;;;;5107680;28;20035;-71
2023/06/13 06:33:53;;;;;;;6.45;3.50;;;20.80;94.50;;;;;;5110642;28;20078;-71
2023/06/13 06:36:22;;;;;;;7.55;3.78;;;20.50;94.50;;;;;;5109798;28;20112;-71
2023/06/13 06:38:50;;;;;;;5.57;3.88;;;20.70;94.60;;;;;;5111790;28;20127;-71
2023/06/13 06:41:16;;;;;;;7.13;2.90;;;20.50;94.10;;;;;;5110585;28;20093;-71
2023/06/13 06:43:42;;;;;;;6.75;3.60;;;20.80;94.30;;;;;;5110526;28;20407;-71
2023/06/13 06:46:08;;;;;;;4.00;2.95;;;21.00;93.90;;;;;;5110729;28;20092;-70
2023/06/13 06:48:34;;;;;;;8.35;3.30;;;21.00;94.10;;;;;;5111945;28;20035;-71
2023/06/13 06:50:59;;;;;;;5.82;3.08;;;21.10;93.90;;;;;;5110613;28;20044;-71
2023/06/13 06:53:25;;;;;;;4.07;2.65;;;21.30;94.10;;;;;;5103112;28;20415;-70
2023/06/13 06:55:50;;;;;;;6.20;3.20;;;21.40;94.10;;;;;;5090775;28;20034;-69
2023/06/13 06:58:16;;;;;;;9.68;3.28;;;21.60;94.10;;;;;;5074555;28;20043;-69
2023/06/13 07:00:41;;;;;;;8.43;4.07;;;21.50;93.90;;;;;;5097379;28;20024;-69
2023/06/13 07:03:07;;;;;;;7.38;3.10;;;22.00;93.90;;;;;;5111684;28;20494;-68
2023/06/13 07:05:33;;;;;;;6.28;3.47;;;21.80;93.30;;;;;;5111089;28;20044;-70
2023/06/13 07:07:58;;;;;;;6.97;3.25;;;21.80;93.40;;;;;;5110172;28;20479;-69
2023/06/13 07:10:26;;;;;;;4.63;3.10;;;22.00;93.50;;;;;;5111690;28;20046;-69
2023/06/13 07:12:52;;;;;;;4.80;2.78;;;21.90;93.50;;;;;;5111658;28;20035;-69
2023/06/13 07:15:17;;;;;;;5.20;3.60;;;22.30;93.60;;;;;;5110176;28;20043;-68
2023/06/13 07:17:43;;;;;;;5.28;3.38;;;22.10;93.60;;;;;;5109768;28;20558;-68
2023/06/13 07:20:09;;;;;;;10.82;3.60;;;22.50;93.80;;;;;;5107015;28;20115;-69
2023/06/13 07:22:35;;;;;;;6.00;3.30;;;22.50;93.70;;;;;;5109917;28;20487;-69
2023/06/13 07:25:00;;;;;;;5.97;3.17;;;22.60;93.60;;;;;;5109063;28;20088;-68
2023/06/13 07:27:26;;;;;;;9.63;3.33;;;22.40;93.20;;;;;;5109154;28;20557;-69
2023/06/13 07:29:52;;;;;;;5.70;2.88;;;22.60;93.00;;;;;;5108428;28;20406;-69
2023/06/13 07:32:17;;;;;;;6.57;2.67;;;22.50;93.10;;;;;;5109371;28;20047;-70
2023/06/13 07:34:43;;;;;;;3.88;2.90;;;22.70;93.10;;;;;;5108966;28;20066;-69
2023/06/13 07:37:10;;;;;;;4.30;2.58;;;22.80;93.00;;;;;;5109765;28;20051;-69
2023/06/13 07:39:35;;;;;;;5.25;2.80;;;22.80;93.30;;;;;;5112384;28;20040;-69
2023/06/13 07:42:01;;;;;;;8.57;2.53;;;23.30;93.30;;;;;;5113151;28;20064;-69
2023/06/13 07:44:26;;;;;;;5.78;2.75;;;23.00;92.80;;;;;;5112887;28;20410;-69
2023/06/13 07:46:52;;;;;;;4.32;2.50;;;23.20;92.40;;;;;;5112163;28;20047;-68
2023/06/13 07:49:17;;;;;;;5.72;2.63;;;23.20;92.40;;;;;;5112441;28;20043;-70
2023/06/13 07:51:43;;;;;;;6.63;3.72;;;23.70;92.70;;;;;;5112338;28;20035;-69
2023/06/13 07:54:09;;;;;;;5.90;2.47;;;23.10;92.20;;;;;;5112550;28;20115;-69
2023/06/13 07:56:34;;;;;;;8.45;3.10;;;23.70;92.50;;;;;;5111937;28;20169;-69
2023/06/13 07:59:00;;;;;;;3.00;2.45;;;23.80;92.20;;;;;;5113613;28;20051;-69
2023/06/13 08:01:26;;;;;;;6.78;2.75;;;23.10;92.20;;;;;;5113733;28;20036;-69
2023/06/13 08:03:51;;;;;;;5.25;2.65;;;23.30;92.10;;;;;;5113851;28;20040;-69
2023/06/13 08:06:17;;;;;;;7.18;3.25;;;23.30;92.00;;;;;;5113345;28;20487;-69
2023/06/13 08:08:43;;;;;;;4.18;2.70;;;23.90;92.00;;;;;;5114575;28;20032;-69
2023/06/13 08:11:09;;;;;;;2.63;2.40;;;23.60;91.80;;;;;;5113733;28;20043;-69
2023/06/13 08:13:35;;;;;;;4.95;2.90;;;23.70;91.50;;;;;;5096367;28;20537;-69
2023/06/13 08:16:01;;;;;;;5.90;2.75;;;23.70;91.60;;;;;;5096080;28;20043;-69
2023/06/13 08:18:27;;;;;;;6.18;2.72;;;23.70;91.60;;;;;;5113264;28;20043;-69
2023/06/13 08:20:52;;;;;;;6.85;3.20;;;24.00;91.90;;;;;;5114782;28;20035;-70
2023/06/13 08:23:18;;;;;;;3.63;2.45;;;24.10;91.30;;;;;;5114505;28;20078;-69
2023/06/13 08:25:44;;;;;;;3.15;2.58;;;24.10;91.50;;;;;;5114145;28;20046;-69
2023/06/13 08:28:11;;;;;;;3.72;2.90;;;24.40;91.10;;;;;;5095810;28;20037;-69
2023/06/13 08:30:37;;;;;;;5.22;2.95;;;24.80;90.90;;;;;;5113404;28;20529;-70
2023/06/13 08:33:02;;;;;;;6.63;3.45;;;24.10;90.40;;;;;;5113230;28;20043;-69
2023/06/13 08:35:29;;;;;;;4.15;3.05;;;24.30;90.60;;;;;;5112409;28;20044;-69
2023/06/13 08:37:54;;;;;;;5.35;2.78;;;24.20;90.40;;;;;;5112767;28;20036;-70
2023/06/13 08:40:21;;;;;;;3.72;2.95;;;25.20;90.20;;;;;;5112989;28;20050;-70
2023/06/13 08:42:48;;;;;;;5.32;2.55;;;24.50;90.40;;;;;;5113007;28;20036;-69
2023/06/13 08:45:14;;;;;;;5.85;2.88;;;24.30;90.40;;;;;;5113923;28;20452;-70
2023/06/13 08:47:45;;;;;;;7.28;3.35;;;24.80;90.70;;;;;;5112718;28;20077;-69
2023/06/13 08:50:12;;;;;;;6.05;3.80;;;24.60;90.00;;;;;;5112640;28;20119;-69
2023/06/13 08:52:40;;;;;;;4.90;3.00;;;24.70;90.30;;;;;;5114036;28;20491;-69
2023/06/13 08:55:09;;;;;;;7.57;2.75;;;24.80;90.20;;;;;;5095817;28;20395;-69
2023/06/13 08:57:37;;;;;;;3.90;2.90;;;24.60;90.40;;;;;;5114348;28;20042;-69
2023/06/13 09:00:06;;;;;;;6.78;3.08;;;24.70;90.50;;;;;;5112271;28;20039;-70
2023/06/13 09:02:32;;;;;;;5.55;2.60;;;24.70;90.20;;;;;;5112556;28;20064;-70
2023/06/13 09:04:58;;;;;;;7.65;2.97;;;25.50;90.90;;;;;;5111950;28;20082;-67
2023/06/13 09:07:25;;;;;;;3.63;2.88;;;24.90;90.40;;;;;;5095373;28;20055;-70
2023/06/13 09:09:53;;;;;;;4.55;3.25;;;24.70;90.30;;;;;;5112068;28;20074;-68
2023/06/13 09:12:20;;;;;;;6.72;2.85;;;25.10;90.50;;;;;;5112294;28;20058;-69
2023/06/13 09:14:46;;;;;;;7.20;3.20;;;25.10;90.90;;;;;;5113459;27;20039;-69
2023/06/13 09:17:12;;;;;;;6.30;3.70;;;25.30;90.40;;;;;;5094852;28;20506;-69
2023/06/13 09:19:37;;;;;;;5.13;3.25;;;25.00;90.60;;;;;;5112281;28;20039;-70
2023/06/13 09:22:03;;;;;;;6.05;2.65;;;25.40;90.90;;;;;;5112117;28;20089;-70
2023/06/13 09:24:31;;;;;;;4.70;2.97;;;25.20;90.10;;;;;;5111953;28;20031;-70
2023/06/13 09:26:57;;;;;;;6.65;3.17;;;25.20;90.20;;;;;;5112154;28;20086;-69
2023/06/13 09:29:34;;;;;;;6.20;3.20;;;25.30;90.60;;;;;;5113141;27;20044;-69
2023/06/13 09:32:01;;;;;;;5.32;3.15;;;25.30;90.20;;;;;;5112214;28;20122;-69
2023/06/13 09:34:30;;;;;;;3.42;2.80;;;25.60;90.40;;;;;;5111843;28;20524;-69
2023/06/13 09:36:57;;;;;;;5.65;3.42;;;25.50;90.30;;;;;;5111302;28;20039;-70
2023/06/13 09:39:24;;;;;;;6.30;3.22;;;25.30;89.50;;;;;;5112751;28;20039;-70
2023/06/13 09:41:57;;;;;;;4.93;3.72;;;25.50;90.50;;;;;;5111628;28;20494;-70
2023/06/13 09:44:24;;;;;;;5.43;3.22;;;25.70;89.60;;;;;;5113088;28;20089;-68
2023/06/13 09:46:54;;;;;;;6.32;3.67;;;25.80;89.40;;;;;;5111304;28;20100;-69
2023/06/13 09:49:20;;;;;;;6.05;3.28;;;25.80;90.40;;;;;;5111395;28;20039;-70
2023/06/13 09:51:46;;;;;;;7.13;3.15;;;25.90;90.50;;;;;;5111579;28;20058;-69
2023/06/13 09:54:13;;;;;;;6.15;3.10;;;26.00;90.50;;;;;;5111223;28;20072;-68
2023/06/13 09:56:43;;;;;;;5.47;3.20;;;26.00;89.90;;;;;;5091001;28;20031;-71
2023/06/13 09:59:17;;;;;;;3.25;2.85;;;25.70;90.00;;;;;;5109337;28;20027;-70
2023/06/13 10:01:47;;;;;;;5.20;3.35;;;25.60;89.00;;;;;;5108065;28;20042;-69
2023/06/13 10:04:13;;;;;;;5.00;2.83;;;25.60;89.70;;;;;;5110423;28;20039;-69
2023/06/13 10:06:39;;;;;;;5.90;3.42;;;25.80;90.20;;;;;;5107152;28;20168;-70
2023/06/13 10:09:05;;;;;;;7.07;3.28;;;25.90;90.40;;;;;;5109612;28;20047;-69
2023/06/13 10:11:35;;;;;;;7.28;3.42;;;26.00;90.40;;;;;;5110446;28;20122;-69
2023/06/13 10:14:15;;;;;;;7.63;3.83;;;26.10;89.30;;;;;;5100976;28;20126;-68
2023/06/13 10:16:45;;;;;;;11.90;3.85;;;26.00;89.30;;;;;;5099943;28;20043;-69
2023/06/13 10:19:21;;;;;;;6.30;3.20;;;25.80;88.60;;;;;;5088974;28;20036;-67
2023/06/13 10:21:47;;;;;;;4.32;3.15;;;25.80;88.30;;;;;;5094934;28;20070;-69
2023/06/13 10:24:16;;;;;;;4.78;3.65;;;26.00;88.30;;;;;;5110906;28;20063;-69
2023/06/13 10:26:44;;;;;;;5.13;2.97;;;26.00;88.10;;;;;;5109004;28;20042;-69
2023/06/13 10:29:46;;;;;;;4.93;3.05;;;26.10;87.80;;;;;;5109830;28;20518;-69
2023/06/13 10:32:33;;;;;;;4.18;3.05;;;26.00;88.20;;;;;;5110200;28;20040;-69
2023/06/13 10:35:03;;;;;;;5.95;2.63;;;26.20;86.40;;;;;;5103460;28;20036;-66
2023/06/13 10:37:48;;;;;;;5.07;2.67;;;26.00;86.20;;;;;;5089234;28;20047;-68
2023/06/13 10:40:34;;;;;;;4.85;2.70;;;26.30;86.90;;;;;;5090040;28;20036;-69
2023/06/13 10:43:14;;;;;;;5.78;3.20;;;26.30;86.90;;;;;;5092277;28;20050;-69
2023/06/13 10:45:44;;;;;;;6.22;3.10;;;26.00;86.50;;;;;;5109832;28;20043;-68
2023/06/13 10:48:11;;;;;;;4.50;2.58;;;26.10;87.60;;;;;;5109073;28;20047;-67
2023/06/13 10:50:41;;;;;;;5.75;3.22;;;26.70;88.30;;;;;;5108805;28;20036;-69
2023/06/13 10:53:31;;;;;;;3.10;2.78;;;26.30;88.00;;;;;;5107897;28;20065;-68
2023/06/13 10:56:01;;;;;;;4.68;2.72;;;26.30;87.40;;;;;;5108539;28;20506;-68
2023/06/13 10:58:28;;;;;;;9.40;2.80;;;26.80;89.80;;;;;;5109373;28;20028;-68
2023/06/13 11:00:53;;;;;;;6.18;3.08;;;26.50;90.40;;;;;;5092634;28;20044;-69
2023/06/13 11:03:19;;;;;;;6.95;2.65;;;26.50;90.70;;;;;;5089148;28;20126;-68
2023/06/13 11:05:44;;;;;;;5.93;2.72;;;26.80;90.80;;;;;;5099191;28;20066;-68
2023/06/13 11:08:19;;;;;;;3.35;2.35;;;26.40;91.10;;;;;;5108913;28;20465;-69
2023/06/13 11:10:47;;;;;;;3.55;2.50;;;26.50;91.30;;;;;;5107972;28;20131;-69
2023/06/13 11:13:26;;;;;;;9.85;3.20;;;26.70;91.40;;;;;;5091348;28;20075;-68
2023/06/13 11:15:57;;;;;;;3.78;2.58;;;26.80;91.60;;;;;;5092517;28;20048;-68
2023/06/13 11:18:23;;;;;;;5.18;2.55;;;26.30;91.30;;;;;;5109019;28;20039;-70
2023/06/13 11:20:55;;;;;;;4.07;2.88;;;26.40;92.00;;;;;;5114080;28;20038;-69
2023/06/13 11:23:22;;;;;;;;;;;26.50;92.20;;;;;;5105182;28;20131;-69
2023/06/13 11:25:51;;;;;;;5.93;2.67;;;26.60;92.90;;;;;;5097626;28;19942;-69
2023/06/13 11:28:18;;;;;;;10.63;3.53;;;26.40;92.50;;;;;;5079432;28;20422;-70
2023/06/13 11:30:47;;;;;;;5.72;2.60;;;26.70;92.30;;;;;;5099452;28;20525;-69
2023/06/13 11:33:13;;;;;;;4.75;2.17;;;26.50;92.40;;;;;;5102756;28;20032;-69
2023/06/13 11:35:50;;;;;;;4.20;2.75;;;25.80;92.70;;;;;;5101789;28;20119;-69
2023/06/13 11:38:21;;;;;;;2.88;1.95;;;26.20;92.70;;;;;;5089368;28;20554;-67
2023/06/13 11:40:54;;;;;;;11.23;3.13;;;25.80;92.90;;;;;;5094856;28;20142;-69
2023/06/13 11:43:20;;;;;;;7.20;2.80;;;26.10;92.70;;;;;;5094885;28;20036;-68
2023/06/13 11:45:46;;;;;;;8.45;2.78;;;26.00;92.60;;;;;;5091222;28;20048;-69
2023/06/13 11:48:17;;;;;;;4.82;2.60;;;25.80;92.80;;;;;;5096362;28;20503;-69
2023/06/13 11:50:44;;;;;;;6.22;2.72;;;26.60;93.60;;;;;;5099071;28;20503;-69
2023/06/13 11:53:11;;;;;;;6.03;2.35;;;26.10;93.20;;;;;;5104366;28;20209;-67
2023/06/13 11:55:36;;;;;;;5.40;2.78;;;26.40;93.20;;;;;;5096243;28;20051;-68
2023/06/13 11:58:02;;;;;;;8.05;2.47;;;26.90;93.10;;;;;;5078760;28;20040;-70
2023/06/13 12:00:28;;;;;;;5.38;2.67;;;25.80;92.70;;;;;;5097437;28;20130;-70
2023/06/13 12:02:55;;;;;;;5.63;2.90;;;25.80;93.00;;;;;;5078761;28;20119;-68
2023/06/13 12:05:21;;;;;;;4.50;2.20;;;26.00;92.90;;;;;;5104712;28;20044;-70
2023/06/13 12:07:48;;;;;;;6.97;2.75;;;25.90;93.10;;;;;;5095583;28;20445;-71
2023/06/13 12:10:15;;;;;;;5.35;2.72;;;25.90;93.10;;;;;;5094810;28;20518;-70
2023/06/13 12:12:41;;;;;;;5.43;2.70;;;25.90;92.80;;;;;;5100667;28;20055;-70
2023/06/13 12:15:13;;;;;;;3.95;2.30;;;26.10;92.90;;;;;;5098810;28;20114;-70
2023/06/13 12:17:55;;;;;;;4.72;2.63;;;25.70;92.70;;;;;;5083767;28;20040;-71
2023/06/13 12:20:24;;;;;;;4.68;2.20;;;26.90;93.60;;;;;;5111310;28;21307;-71
2023/06/13 12:22:58;;;;;;;4.78;2.50;;;26.20;92.80;;;;;;5108566;28;20035;-70
2023/06/13 12:25:28;;;;;;;6.80;2.58;;;26.60;92.20;;;;;;5111058;28;20039;-71
2023/06/13 12:28:01;;;;;;;5.03;2.85;;;26.80;93.20;;;;;;5109727;28;20127;-70
2023/06/13 12:30:29;;;;;;;9.75;2.78;;;27.00;93.60;;;;;;5110791;28;20038;-70
2023/06/13 12:32:57;;;;;;;5.40;2.42;;;26.80;93.80;;;;;;5111858;28;20031;-71
2023/06/13 12:35:29;;;;;;;4.68;2.88;;;26.50;93.90;;;;;;5109227;28;20038;-70
2023/06/13 12:37:59;;;;;;;6.28;2.85;;;26.70;94.10;;;;;;5111734;28;20036;-71
2023/06/13 12:40:35;;;;;;;6.43;2.83;;;26.50;93.80;;;;;;5111282;28;20158;-70
2023/06/13 12:43:02;;;;;;;4.55;2.38;;;26.50;94.10;;;;;;5091270;28;20068;-70
2023/06/13 12:45:28;;;;;;;6.05;2.08;;;26.50;94.10;;;;;;5091211;28;20082;-69
2023/06/13 12:47:55;;;;;;;4.53;2.13;;;27.00;94.20;;;;;;5106764;28;20037;-70
2023/06/13 12:50:26;;;;;;;7.70;2.55;;;27.10;94.50;;;;;;5114687;28;20035;-71